METAR Formatted Surface Weather Observation
Issued by NWS

Home | Current Version | Previous Version | Text Only | Print | Product List | Glossary On
Versions: 1 2 3 4 5 6 7 8 9 10 11 12 13 14 15 16 17 18 19 20 21 22 23 24 25 26 27 28 29 30 31
459
SAUS41 KBOX 290356
MTRMQE
METAR KMQE 290354Z AUTO 06013G25KT 13/11 A3033 RMK AO1 PK WND
04027/0322 SLP282 T01280111



USA.gov is the U.S. government's official web portal to all federal, state and local government web resources and services.